»·PEaware :: N79324 KSEE-KSAN

N79324 :: KSEE-KSAN

FLIGHT INFORMATION

Flight Status: Arrived
Operator: Privately registered:
United States
More flights under this callsign
Pilot: Jason P. (438)
Aircraft: CESSNA 172 SKYHAWK
(C172)
More flights by this aircraft type
Origin: KSEE Gillespie
United States
Destination: KSAN San Diego Intl-Lindbergh
United States
More flights between these airports :: More routes between these airports
Route: +27L DP MZB V66 RYAHH
File this flight plan on PilotEdge
Remarks:
Altitude:
(Current/Filed)
5,500ft
Speed:
(Current/Filed)
115kts
Departed: 24-Mar-12 09:29 AM
Arrived: 24-Mar-12 10:00 AM
Distance/Time
Traveled:
12nm/0:31
Distance/Time
To Go:
Arrived

Flight Plot

Page will automatically refresh every two minutes.

Flight plan parsing failed; only flown route is shown


Map Options




Map Legend


Flown Route
Filed Route
Departure Airport
Arrival Airport
Navaid (VOR, NDB)
Fix

Horizontal Profiles

Position Reports

Time Latitude Longitude Heading Altitude Ground
Speed
24-Mar-12 09:02 32.823743 -116.970954 180 392ft 0kts
24-Mar-12 09:03 32.823743 -116.970954 180 392ft 0kts
24-Mar-12 09:04 32.823743 -116.970954 180 392ft 0kts
24-Mar-12 09:05 32.823743 -116.970954 180 392ft 0kts
24-Mar-12 09:06 32.823743 -116.970954 180 392ft 0kts
24-Mar-12 09:08 32.823743 -116.970954 180 392ft 0kts
24-Mar-12 09:09 32.823743 -116.970954 180 392ft 0kts
24-Mar-12 09:15 32.825049 -116.969380 14 392ft 0kts
24-Mar-12 09:16 32.825049 -116.969380 14 392ft 0kts
24-Mar-12 09:17 32.825049 -116.969380 14 392ft 0kts
24-Mar-12 09:18 32.825049 -116.969380 14 392ft 0kts
24-Mar-12 09:19 32.825049 -116.969380 14 392ft 0kts
24-Mar-12 09:20 32.825049 -116.969380 14 392ft 0kts
24-Mar-12 09:21 32.825049 -116.969380 14 392ft 0kts
24-Mar-12 09:22 32.825052 -116.969389 14 392ft 0kts
24-Mar-12 09:23 32.825052 -116.969389 14 392ft 0kts
24-Mar-12 09:24 32.824918 -116.968939 202 392ft 5kts
24-Mar-12 09:25 32.825628 -116.969823 101 392ft 10kts
24-Mar-12 09:26 32.825397 -116.967922 35 392ft 0kts
24-Mar-12 09:27 32.825397 -116.967922 35 392ft 0kts
24-Mar-12 09:28 32.826626 -116.972051 283 393ft 69kts
24-Mar-12 09:29 32.823564 -116.999031 238 1203ft 94kts
24-Mar-12 09:30 32.818115 -117.009325 241 1561ft 95kts
24-Mar-12 09:31 32.812644 -117.023266 250 1861ft 99kts
24-Mar-12 09:32 32.794998 -117.042335 149 2696ft 95kts
24-Mar-12 09:33 32.786445 -117.012827 98 3343ft 100kts
24-Mar-12 09:34 32.782725 -116.997318 98 3685ft 100kts
24-Mar-12 09:35 32.774677 -116.962659 98 4000ft 123kts
24-Mar-12 09:36 32.765826 -116.922871 99 3978ft 113kts
24-Mar-12 09:37 32.757042 -116.891292 127 3969ft 96kts
24-Mar-12 09:38 32.731682 -116.891019 190 4004ft 95kts
24-Mar-12 09:39 32.722291 -116.893384 190 3993ft 97kts
24-Mar-12 09:40 32.709439 -116.896622 190 3992ft 99kts
24-Mar-12 09:41 32.696477 -116.899879 189 3992ft 106kts
24-Mar-12 09:42 32.684923 -116.909687 230 3985ft 123kts
24-Mar-12 09:43 32.675690 -116.923051 230 3980ft 127kts
24-Mar-12 09:44 32.668679 -116.938840 260 3966ft 124kts
24-Mar-12 09:45 32.669611 -116.955867 298 3952ft 120kts
24-Mar-12 09:46 32.677655 -116.968046 304 3970ft 117kts
24-Mar-12 09:47 32.682613 -116.980742 283 3994ft 99kts
24-Mar-12 09:48 32.684776 -116.993494 283 3979ft 89kts
24-Mar-12 09:49 32.687058 -117.005112 287 3974ft 79kts
24-Mar-12 09:50 32.689562 -117.016324 293 3866ft 75kts
24-Mar-12 09:51 32.693619 -117.028724 291 3400ft 84kts
24-Mar-12 09:52 32.697423 -117.043182 288 2925ft 88kts
24-Mar-12 09:53 32.702450 -117.062234 285 2336ft 84kts
24-Mar-12 09:54 32.708111 -117.087408 289 1753ft 75kts
24-Mar-12 09:55 32.714657 -117.112058 283 1403ft 79kts
24-Mar-12 09:56 32.721546 -117.136137 286 947ft 83kts
24-Mar-12 09:57 32.723916 -117.150797 285 811ft 77kts
24-Mar-12 09:58 32.728745 -117.170462 291 401ft 75kts
24-Mar-12 09:59 32.733130 -117.187738 304 21ft 33kts
24-Mar-12 10:00 32.734706 -117.187285 86 21ft 18kts
24-Mar-12 10:01 32.734339 -117.187377 280 21ft 22kts
24-Mar-12 10:02 32.735004 -117.188609 170 21ft 0kts
24-Mar-12 10:03 32.735004 -117.188609 170 21ft 0kts
24-Mar-12 10:04 32.735004 -117.188609 170 21ft 0kts

Navigation Log

Ident Type
Flight plan parsing failed, navigation log unavailable